createdAt,value
2019-05-11T00:02:18.103Z,63.28
2019-05-11T00:04:48.526Z,63.73
2019-05-11T00:07:20.192Z,64.34
2019-05-11T00:09:57.956Z,64.91
2019-05-11T00:12:23.130Z,64.55
2019-05-11T00:14:53.787Z,65.30
2019-05-11T00:17:24.440Z,65.95
2019-05-11T00:19:55.165Z,66.33
2019-05-11T00:22:26.027Z,66.58
2019-05-11T00:24:56.701Z,66.07
2019-05-11T00:27:27.476Z,67.08
2019-05-11T00:29:58.325Z,67.12
2019-05-11T00:32:28.863Z,66.95
2019-05-11T00:34:59.281Z,66.94
2019-05-11T00:37:29.747Z,67.40
2019-05-11T00:40:13.232Z,67.80
2019-05-11T00:42:32.926Z,68.42
2019-05-11T00:45:03.812Z,67.83
2019-05-11T00:47:35.821Z,68.29
2019-05-11T00:50:06.959Z,67.76
2019-05-11T00:52:37.702Z,68.04
2019-05-11T00:55:08.589Z,68.40
2019-05-11T00:57:39.382Z,68.67
2019-05-11T01:00:11.497Z,67.93
2019-05-11T01:02:41.942Z,68.31
2019-05-11T01:05:12.601Z,67.93
2019-05-11T01:07:43.589Z,68.35
2019-05-11T01:10:25.277Z,68.67
2019-05-11T01:12:47.160Z,68.80
2019-05-11T01:15:18.052Z,68.92
2019-05-11T01:17:48.735Z,68.87
2019-05-11T01:20:20.139Z,69.16
2019-05-11T01:22:50.953Z,69.29
2019-05-11T01:25:21.587Z,69.24
2019-05-11T01:27:52.389Z,68.71
2019-05-11T01:30:23.284Z,68.27
2019-05-11T01:32:53.724Z,68.12
2019-05-11T01:35:24.152Z,68.18
2019-05-11T01:37:54.911Z,68.50
2019-05-11T01:40:25.506Z,68.68
2019-05-11T01:42:56.285Z,69.00
2019-05-11T01:45:27.009Z,68.50
2019-05-11T01:48:00.148Z,68.46
2019-05-11T01:50:30.916Z,68.45
2019-05-11T01:53:01.726Z,68.61
2019-05-11T01:55:32.378Z,68.43
2019-05-11T01:58:03.269Z,67.97
2019-05-11T02:00:34.202Z,67.84
2019-05-11T02:03:04.691Z,67.96
2019-05-11T02:05:35.118Z,67.71
2019-05-11T02:08:06.026Z,67.65
2019-05-11T02:10:36.727Z,67.74
2019-05-11T02:13:07.380Z,67.40
2019-05-11T02:15:38.093Z,67.01
2019-05-11T02:18:09.074Z,67.27
2019-05-11T02:20:39.778Z,66.94
2019-05-11T02:23:10.764Z,67.43
2019-05-11T02:25:41.516Z,67.20
2019-05-11T02:28:12.285Z,67.15
2019-05-11T02:30:42.963Z,67.18
2019-05-11T02:33:13.434Z,67.01
2019-05-11T02:35:43.849Z,67.44
2019-05-11T02:38:14.700Z,67.30
2019-05-11T02:40:46.582Z,67.49
2019-05-11T02:43:17.423Z,67.45
2019-05-11T02:45:48.354Z,66.93
2019-05-11T02:48:19.018Z,67.18
2019-05-11T02:50:50.702Z,67.51
2019-05-11T02:53:22.399Z,67.68
2019-05-11T02:55:53.289Z,67.55
2019-05-11T02:58:24.120Z,67.86
2019-05-11T03:00:54.559Z,68.19
2019-05-11T03:03:25.003Z,68.09
2019-05-11T03:05:55.420Z,68.62
2019-05-11T03:08:26.440Z,68.46
2019-05-11T03:10:57.131Z,67.51
2019-05-11T03:13:28.008Z,67.26
2019-05-11T03:15:58.703Z,68.43
2019-05-11T03:18:29.554Z,68.76
2019-05-11T03:21:00.279Z,68.80
2019-05-11T03:23:30.894Z,68.79
2019-05-11T03:26:01.499Z,69.32
2019-05-11T03:28:32.096Z,69.20
2019-05-11T03:31:03.520Z,70.01
2019-05-11T03:33:34.209Z,70.04
2019-05-11T03:36:04.664Z,70.26
2019-05-11T03:38:35.368Z,70.31
2019-05-11T03:41:06.456Z,69.74
2019-05-11T03:43:37.195Z,69.69
2019-05-11T03:46:07.826Z,69.56
2019-05-11T03:48:38.583Z,69.70
2019-05-11T03:51:09.340Z,69.55
2019-05-11T03:53:40.051Z,69.83
2019-05-11T03:56:10.697Z,69.59
2019-05-11T03:58:41.356Z,69.19
2019-05-11T04:01:11.818Z,69.15
2019-05-11T04:03:42.752Z,68.54
2019-05-11T04:06:13.409Z,68.21
2019-05-11T04:08:43.917Z,68.35
2019-05-11T04:11:14.663Z,67.76
2019-05-11T04:13:45.466Z,67.38
2019-05-11T04:16:15.804Z,66.91
2019-05-11T04:18:46.484Z,66.67
2019-05-11T04:21:16.795Z,66.21
2019-05-11T04:23:47.497Z,66.47
2019-05-11T04:26:17.829Z,66.13
2019-05-11T04:28:48.139Z,65.90
2019-05-11T04:31:18.898Z,65.16
2019-05-11T04:33:49.606Z,64.27
2019-05-11T04:36:20.162Z,64.30
2019-05-11T04:38:50.768Z,64.09
2019-05-11T04:41:21.487Z,63.42
2019-05-11T04:43:51.855Z,63.32
2019-05-11T04:46:22.289Z,63.21
2019-05-11T04:48:53.161Z,63.10
2019-05-11T04:51:23.485Z,62.15
2019-05-11T04:53:54.026Z,61.96
2019-05-11T04:56:24.484Z,61.70
2019-05-11T04:58:55.235Z,61.02
2019-05-11T05:01:25.692Z,60.76
2019-05-11T05:04:13.440Z,60.14
2019-05-11T05:06:31.240Z,60.15
2019-05-11T05:09:03.691Z,59.66
2019-05-11T05:11:36.814Z,59.59
2019-05-11T05:14:08.375Z,59.05
2019-05-11T05:16:38.565Z,58.60
2019-05-11T05:19:08.925Z,58.63
2019-05-11T05:21:39.411Z,58.39
2019-05-11T05:24:10.203Z,58.24
2019-05-11T05:26:40.647Z,57.80
2019-05-11T05:29:11.224Z,58.36
2019-05-11T05:31:41.636Z,56.73
2019-05-11T05:34:11.954Z,57.54
2019-05-11T05:36:42.757Z,56.43
2019-05-11T05:39:13.095Z,56.11
2019-05-11T05:41:43.456Z,56.37
2019-05-11T05:44:14.235Z,56.32
2019-05-11T05:46:47.222Z,56.07
2019-05-11T05:49:17.733Z,56.26
2019-05-11T05:51:48.554Z,56.05
2019-05-11T05:54:19.330Z,56.25
2019-05-11T05:56:50.082Z,55.43
2019-05-11T05:59:20.450Z,55.95
2019-05-11T06:01:50.789Z,56.64
2019-05-11T06:04:21.613Z,55.20
2019-05-11T06:06:52.085Z,56.20
2019-05-11T06:09:22.694Z,56.08
2019-05-11T06:11:53.823Z,55.89
2019-05-11T06:14:24.221Z,56.32
2019-05-11T06:16:54.519Z,55.29
2019-05-11T06:19:25.358Z,56.09
2019-05-11T06:21:56.118Z,55.49
2019-05-11T06:24:26.497Z,55.15
2019-05-11T06:26:56.995Z,55.54
2019-05-11T06:29:27.333Z,55.40
2019-05-11T06:31:57.779Z,55.68
2019-05-11T06:34:28.465Z,54.14
2019-05-11T06:36:58.805Z,54.69
2019-05-11T06:39:29.574Z,55.36
2019-05-11T06:42:00.315Z,54.76
2019-05-11T06:44:30.867Z,53.96
2019-05-11T06:47:01.369Z,54.09
2019-05-11T06:49:32.236Z,52.75
2019-05-11T06:52:02.538Z,52.82
2019-05-11T06:54:33.094Z,52.23
2019-05-11T06:57:03.824Z,52.94
2019-05-11T06:59:34.125Z,53.27
2019-05-11T07:02:04.462Z,53.11
2019-05-11T07:04:35.081Z,52.98
2019-05-11T07:07:05.624Z,51.98
2019-05-11T07:09:35.933Z,52.35
2019-05-11T07:12:06.778Z,52.51
2019-05-11T07:14:37.469Z,52.58
2019-05-11T07:17:07.864Z,51.66
2019-05-11T07:19:38.670Z,51.88
2019-05-11T07:22:09.506Z,51.79
2019-05-11T07:24:39.964Z,52.05
2019-05-11T07:27:10.461Z,52.37
2019-05-11T07:29:40.915Z,51.97
2019-05-11T07:32:21.968Z,50.61
2019-05-11T07:34:43.576Z,50.33
2019-05-11T07:37:13.945Z,48.39
2019-05-11T07:39:44.585Z,48.21
2019-05-11T07:42:15.014Z,46.81
2019-05-11T07:44:47.942Z,46.03
2019-05-11T07:47:18.706Z,45.70
2019-05-11T07:49:49.778Z,48.09
2019-05-11T07:52:20.242Z,48.30
2019-05-11T07:54:52.977Z,48.75
2019-05-11T07:57:28.244Z,47.64
2019-05-11T07:59:58.109Z,48.02
2019-05-11T08:02:31.934Z,47.17
2019-05-11T08:05:01.940Z,48.32
2019-05-11T08:07:32.450Z,47.16
2019-05-11T08:10:03.279Z,45.61
2019-05-11T08:12:33.638Z,44.92
2019-05-11T08:15:11.690Z,44.50
2019-05-11T08:17:38.111Z,44.86
2019-05-11T08:20:08.973Z,41.66
2019-05-11T08:22:39.391Z,40.86
2019-05-11T08:25:10.386Z,43.47
2019-05-11T08:27:41.838Z,44.11
2019-05-11T08:30:12.931Z,44.51
2019-05-11T08:32:43.464Z,43.17
2019-05-11T08:35:14.705Z,41.97
2019-05-11T08:37:47.713Z,40.87
2019-05-11T08:40:18.627Z,40.68
2019-05-11T08:42:48.977Z,40.08
2019-05-11T08:45:24.479Z,41.63
2019-05-11T08:47:52.178Z,42.87
2019-05-11T08:50:22.489Z,42.05
2019-05-11T08:52:53.267Z,43.97
2019-05-11T08:55:23.778Z,41.21
2019-05-11T08:57:54.132Z,41.44
2019-05-11T09:00:24.907Z,41.68
2019-05-11T09:02:58.018Z,41.37
2019-05-11T09:05:28.163Z,40.12
2019-05-11T09:07:58.820Z,40.15
2019-05-11T09:10:29.130Z,39.24
2019-05-11T09:12:59.904Z,39.24
2019-05-11T09:15:36.928Z,39.95
2019-05-11T09:18:02.587Z,39.05
2019-05-11T09:20:32.980Z,36.23
2019-05-11T09:23:03.489Z,37.41
2019-05-11T09:25:33.956Z,36.35
2019-05-11T09:28:04.435Z,35.83
2019-05-11T09:30:35.086Z,35.23
2019-05-11T09:33:05.392Z,35.23
2019-05-11T09:35:47.577Z,36.37
2019-05-11T09:38:08.611Z,36.37
2019-05-11T09:40:38.950Z,36.67
2019-05-11T09:43:09.478Z,35.39
2019-05-11T09:45:48.093Z,34.30
2019-05-11T09:48:11.902Z,35.96
2019-05-11T09:50:42.285Z,35.69
2019-05-11T09:53:12.576Z,35.69
2019-05-11T09:55:43.023Z,35.34
2019-05-11T09:58:13.776Z,33.95
2019-05-11T10:00:44.108Z,33.80
2019-05-11T10:03:14.518Z,34.01
2019-05-11T10:05:45.277Z,34.14
2019-05-11T10:08:15.626Z,32.84
2019-05-11T10:10:48.647Z,31.02
2019-05-11T10:13:18.762Z,31.40
2019-05-11T10:16:03.786Z,33.06
2019-05-11T10:18:24.259Z,32.84
2019-05-11T10:20:53.330Z,32.42
2019-05-11T10:23:23.625Z,32.07
2019-05-11T10:25:54.347Z,31.35
2019-05-11T10:28:24.820Z,30.19
2019-05-11T10:30:57.684Z,30.69
2019-05-11T10:33:28.273Z,30.10
2019-05-11T10:36:02.769Z,29.62
2019-05-11T10:38:31.007Z,30.63
2019-05-11T10:41:01.638Z,31.30
2019-05-11T10:43:32.328Z,31.26
2019-05-11T10:46:15.986Z,31.54
2019-05-11T10:48:34.832Z,30.16
2019-05-11T10:51:05.186Z,29.11
2019-05-11T10:53:38.270Z,28.74
2019-05-11T10:56:08.856Z,28.55
2019-05-11T10:58:39.195Z,29.20
2019-05-11T11:01:09.875Z,29.47
2019-05-11T11:03:40.514Z,29.38
2019-05-11T11:06:10.892Z,29.15
2019-05-11T11:08:41.435Z,29.14
2019-05-11T11:11:12.125Z,30.65
2019-05-11T11:13:43.382Z,28.92
2019-05-11T11:16:13.714Z,28.12
2019-05-11T11:18:44.493Z,28.84
2019-05-11T11:21:14.949Z,27.02
2019-05-11T11:23:45.242Z,28.83
2019-05-11T11:26:18.231Z,28.14
2019-05-11T11:28:48.171Z,27.42
2019-05-11T11:31:18.914Z,27.70
2019-05-11T11:33:49.641Z,27.15
2019-05-11T11:36:20.258Z,26.31
2019-05-11T11:38:50.563Z,25.35
2019-05-11T11:41:21.233Z,26.65
2019-05-11T11:43:51.613Z,26.09
2019-05-11T11:46:22.006Z,25.84
2019-05-11T11:48:52.617Z,24.34
2019-05-11T11:51:23.933Z,25.26
2019-05-11T11:53:54.486Z,25.63
2019-05-11T11:56:25.208Z,24.98
2019-05-11T11:58:57.792Z,24.58
2019-05-11T12:01:28.243Z,24.79
2019-05-11T12:03:59.105Z,24.52
2019-05-11T12:06:29.477Z,24.19
2019-05-11T12:08:59.934Z,25.21
2019-05-11T12:11:30.663Z,24.64
2019-05-11T12:14:00.941Z,23.97
2019-05-11T12:16:31.289Z,22.99
2019-05-11T12:19:05.099Z,21.76
2019-05-11T12:21:34.045Z,22.40
2019-05-11T12:24:04.483Z,23.89
2019-05-11T12:26:34.805Z,23.15
2019-05-11T12:29:05.318Z,22.93
2019-05-11T12:31:37.558Z,22.75
2019-05-11T12:34:08.817Z,22.26
2019-05-11T12:36:39.497Z,22.60
2019-05-11T12:39:09.899Z,22.75
2019-05-11T12:41:40.313Z,22.16
2019-05-11T12:44:10.592Z,21.16
2019-05-11T12:46:41.209Z,19.72
2019-05-11T12:49:11.825Z,20.81
2019-05-11T12:51:42.241Z,21.61
2019-05-11T12:54:12.928Z,19.91
2019-05-11T12:56:43.350Z,20.39
2019-05-11T12:59:14.028Z,21.74
2019-05-11T13:01:44.365Z,21.73
2019-05-11T13:04:14.714Z,22.67
2019-05-11T13:06:45.334Z,22.53
2019-05-11T13:09:18.128Z,22.30
2019-05-11T13:11:48.326Z,21.94
2019-05-11T13:14:19.711Z,20.73
2019-05-11T13:16:50.394Z,20.82
2019-05-11T13:19:20.700Z,19.39
2019-05-11T13:21:51.254Z,19.35
2019-05-11T13:24:21.940Z,19.02
2019-05-11T13:26:52.290Z,17.70
2019-05-11T13:29:22.809Z,16.91
2019-05-11T13:31:53.158Z,16.50
2019-05-11T13:34:23.992Z,16.72
2019-05-11T13:36:54.649Z,16.84
2019-05-11T13:39:24.957Z,17.94
2019-05-11T13:41:57.817Z,18.25
2019-05-11T13:44:28.120Z,18.22
2019-05-11T13:46:58.818Z,18.53
2019-05-11T13:49:32.333Z,17.37
2019-05-11T13:52:01.881Z,15.93
2019-05-11T13:54:32.255Z,16.83
2019-05-11T13:57:02.572Z,17.20
2019-05-11T13:59:33.248Z,17.72
2019-05-11T14:02:04.064Z,18.79
2019-05-11T14:04:34.492Z,18.92
2019-05-11T14:07:07.891Z,18.37
2019-05-11T14:09:38.150Z,17.75
2019-05-11T14:12:08.816Z,16.73
2019-05-11T14:14:39.187Z,16.44
2019-05-11T14:17:09.581Z,17.84
2019-05-11T14:19:40.408Z,17.56
2019-05-11T14:22:10.708Z,16.29
2019-05-11T14:24:41.063Z,16.74
2019-05-11T14:27:11.884Z,17.59
2019-05-11T14:29:42.507Z,18.29
2019-05-11T14:32:14.328Z,17.93
2019-05-11T14:34:44.658Z,17.50
2019-05-11T14:37:14.993Z,17.15
2019-05-11T14:39:48.062Z,17.35
2019-05-11T14:42:22.184Z,16.59
2019-05-11T14:44:49.981Z,16.50
2019-05-11T14:47:20.776Z,17.09
2019-05-11T14:49:51.243Z,17.16
2019-05-11T14:52:22.779Z,17.26
2019-05-11T14:54:53.378Z,17.96
2019-05-11T14:57:24.058Z,17.27
2019-05-11T14:59:54.399Z,19.12
2019-05-11T15:02:48.574Z,18.29
2019-05-11T15:05:19.426Z,17.29
2019-05-11T15:07:52.806Z,15.71
2019-05-11T15:10:23.633Z,16.16
2019-05-11T15:12:53.931Z,15.82
2019-05-11T15:15:27.947Z,15.72
2019-05-11T15:17:59.166Z,16.14
2019-05-11T15:20:29.505Z,16.34
2019-05-11T15:23:00.234Z,16.38
2019-05-11T15:25:31.009Z,16.71
2019-05-11T15:28:01.369Z,17.79
2019-05-11T15:30:31.994Z,19.62
2019-05-11T15:33:02.410Z,20.34
2019-05-11T15:35:32.720Z,20.38
2019-05-11T15:38:03.068Z,21.45
2019-05-11T15:40:33.836Z,21.17
2019-05-11T15:43:04.140Z,20.70
2019-05-11T15:45:34.604Z,20.14
2019-05-11T15:48:05.493Z,19.07
2019-05-11T15:50:39.770Z,20.06
2019-05-11T15:53:08.885Z,19.04
2019-05-11T15:55:42.436Z,18.33
2019-05-11T15:58:11.942Z,17.94
2019-05-11T16:00:42.286Z,17.92
2019-05-11T16:03:12.672Z,18.64
2019-05-11T16:05:43.171Z,18.33
2019-05-11T16:08:13.524Z,17.86
2019-05-11T16:10:45.117Z,18.44
2019-05-11T16:13:17.896Z,18.00
2019-05-11T16:15:49.090Z,19.42
2019-05-11T16:18:19.823Z,19.66
2019-05-11T16:20:50.543Z,20.25
2019-05-11T16:23:21.165Z,20.98
2019-05-11T16:25:52.832Z,21.39
2019-05-11T16:28:23.217Z,20.45
2019-05-11T16:30:53.612Z,20.95
2019-05-11T16:33:24.009Z,21.84
2019-05-11T16:35:54.424Z,23.02
2019-05-11T16:38:24.794Z,23.95
2019-05-11T16:40:55.395Z,24.89
2019-05-11T16:43:28.159Z,25.50
2019-05-11T16:45:58.543Z,25.71
2019-05-11T16:48:28.832Z,26.45
2019-05-11T16:50:59.433Z,26.59
2019-05-11T16:53:30.128Z,27.01
2019-05-11T16:56:00.554Z,27.64
2019-05-11T16:58:30.878Z,28.13
2019-05-11T17:01:01.530Z,28.68
2019-05-11T17:03:31.796Z,29.04
2019-05-11T17:06:02.184Z,29.17
2019-05-11T17:08:32.898Z,29.14
2019-05-11T17:11:03.561Z,29.38
2019-05-11T17:13:34.006Z,31.10
2019-05-11T17:16:04.526Z,35.14
2019-05-11T17:18:34.830Z,36.70
2019-05-11T17:21:07.603Z,37.34
2019-05-11T17:23:38.434Z,37.97
2019-05-11T17:26:09.026Z,39.21
2019-05-11T17:28:40.674Z,39.51
2019-05-11T17:31:11.031Z,40.02
2019-05-11T17:33:41.305Z,40.68
2019-05-11T17:36:13.077Z,41.11
2019-05-11T17:38:43.835Z,41.95
2019-05-11T17:41:14.156Z,42.74
2019-05-11T17:43:44.915Z,42.74
2019-05-11T17:46:15.710Z,42.82
2019-05-11T17:48:46.071Z,43.81
2019-05-11T17:51:21.848Z,44.06
2019-05-11T17:53:49.070Z,44.47
2019-05-11T17:56:19.391Z,45.07
2019-05-11T17:58:49.727Z,44.98
2019-05-11T18:01:20.138Z,45.21
2019-05-11T18:03:50.438Z,45.51
2019-05-11T18:06:20.825Z,45.77
2019-05-11T18:08:51.550Z,46.22
2019-05-11T18:11:22.088Z,46.29
2019-05-11T18:13:52.484Z,46.43
2019-05-11T18:16:23.105Z,46.98
2019-05-11T18:18:54.534Z,47.56
2019-05-11T18:21:25.091Z,47.59
2019-05-11T18:23:56.392Z,47.10
2019-05-11T18:26:28.601Z,47.62
2019-05-11T18:28:59.113Z,47.60
2019-05-11T18:31:29.443Z,48.33
2019-05-11T18:33:59.735Z,48.34
2019-05-11T18:36:30.545Z,48.66
2019-05-11T18:39:01.084Z,49.06
2019-05-11T18:41:32.796Z,49.36
2019-05-11T18:44:03.433Z,49.55
2019-05-11T18:46:34.122Z,49.91
2019-05-11T18:49:05.795Z,49.35
2019-05-11T18:51:37.804Z,49.03
2019-05-11T18:54:09.237Z,49.20
2019-05-11T18:56:40.029Z,49.47
2019-05-11T18:59:10.400Z,50.00
2019-05-11T19:01:40.695Z,50.34
2019-05-11T19:04:11.109Z,50.67
2019-05-11T19:06:41.820Z,51.14
2019-05-11T19:09:12.206Z,51.17
2019-05-11T19:11:43.084Z,50.31
2019-05-11T19:14:13.887Z,49.46
2019-05-11T19:16:44.304Z,50.12
2019-05-11T19:19:14.915Z,50.13
2019-05-11T19:21:45.243Z,50.52
2019-05-11T19:24:15.844Z,50.89
2019-05-11T19:26:48.113Z,51.62
2019-05-11T19:29:18.531Z,51.15
2019-05-11T19:31:49.001Z,51.02
2019-05-11T19:34:20.397Z,51.44
2019-05-11T19:36:50.937Z,51.92
2019-05-11T19:39:21.396Z,51.75
2019-05-11T19:41:52.261Z,51.69
2019-05-11T19:44:22.557Z,51.33
2019-05-11T19:46:53.021Z,50.37
2019-05-11T19:49:23.565Z,50.71
2019-05-11T19:51:54.004Z,52.66
2019-05-11T19:54:24.404Z,53.43
2019-05-11T19:56:55.040Z,53.58
2019-05-11T19:59:25.375Z,52.97
2019-05-11T20:01:59.797Z,53.54
2019-05-11T20:04:28.461Z,54.46
2019-05-11T20:06:59.018Z,53.97
2019-05-11T20:09:29.376Z,54.34
2019-05-11T20:12:00.175Z,53.80
2019-05-11T20:14:31.791Z,54.15
2019-05-11T20:17:02.083Z,53.78
2019-05-11T20:19:32.570Z,53.74
2019-05-11T20:22:04.397Z,54.85
2019-05-11T20:24:35.333Z,54.67
2019-05-11T20:27:07.954Z,54.14
2019-05-11T20:29:38.566Z,54.77
2019-05-11T20:32:08.986Z,54.94
2019-05-11T20:34:39.606Z,54.92
2019-05-11T20:37:09.982Z,55.03
2019-05-11T20:39:40.609Z,55.60
2019-05-11T20:42:11.397Z,55.25
2019-05-11T20:44:41.796Z,54.90
2019-05-11T20:47:12.159Z,54.81
2019-05-11T20:49:42.948Z,54.73
2019-05-11T20:52:13.378Z,54.18
2019-05-11T20:54:44.214Z,54.90
2019-05-11T20:57:14.600Z,55.34
2019-05-11T20:59:44.982Z,54.77
2019-05-11T21:02:15.374Z,55.11
2019-05-11T21:04:45.840Z,54.72
2019-05-11T21:07:16.192Z,54.15
2019-05-11T21:09:48.371Z,53.96
2019-05-11T21:12:18.774Z,54.13
2019-05-11T21:14:49.128Z,54.76
2019-05-11T21:17:19.934Z,55.00
2019-05-11T21:19:51.448Z,55.39
2019-05-11T21:22:21.903Z,56.04
2019-05-11T21:24:52.717Z,56.54
2019-05-11T21:27:23.120Z,59.47
2019-05-11T21:29:53.559Z,60.35
2019-05-11T21:32:23.844Z,61.42
2019-05-11T21:34:54.272Z,61.59
2019-05-11T21:37:24.946Z,61.44
2019-05-11T21:39:57.677Z,61.65
2019-05-11T21:42:28.030Z,62.08
2019-05-11T21:44:58.632Z,62.51
2019-05-11T21:47:29.213Z,62.41
2019-05-11T21:49:59.515Z,62.56
2019-05-11T21:52:30.216Z,62.66
2019-05-11T21:55:01.047Z,62.83
2019-05-11T21:57:31.398Z,62.70
2019-05-11T22:00:01.773Z,62.58
2019-05-11T22:02:33.786Z,61.91
2019-05-11T22:05:04.689Z,61.52
2019-05-11T22:07:35.159Z,62.18
2019-05-11T22:10:06.014Z,62.29
2019-05-11T22:12:38.716Z,61.70
2019-05-11T22:15:11.040Z,61.12
2019-05-11T22:17:41.389Z,60.68
2019-05-11T22:20:12.033Z,60.99
2019-05-11T22:22:42.800Z,60.51
2019-05-11T22:25:13.240Z,61.00
2019-05-11T22:27:43.596Z,62.41
2019-05-11T22:30:14.436Z,60.67
2019-05-11T22:32:44.865Z,60.65
2019-05-11T22:35:18.027Z,60.82
2019-05-11T22:37:49.048Z,60.72
2019-05-11T22:40:20.124Z,60.52
2019-05-11T22:42:50.828Z,60.72
2019-05-11T22:45:21.177Z,60.84
2019-05-11T22:47:51.519Z,60.05
2019-05-11T22:50:22.246Z,60.78
2019-05-11T22:52:53.558Z,62.35
2019-05-11T22:55:23.867Z,63.41
2019-05-11T22:57:54.552Z,65.26
2019-05-11T23:00:59.516Z,66.65
2019-05-11T23:03:28.265Z,67.03
2019-05-11T23:05:59.024Z,66.26
2019-05-11T23:08:29.428Z,66.04
2019-05-11T23:11:00.290Z,67.01
2019-05-11T23:13:30.641Z,65.55
2019-05-11T23:16:00.947Z,64.99
2019-05-11T23:18:31.608Z,65.06
2019-05-11T23:21:02.203Z,65.49
2019-05-11T23:23:32.617Z,65.06
2019-05-11T23:26:03.317Z,65.63
2019-05-11T23:28:33.752Z,68.44
2019-05-11T23:31:05.186Z,69.12
2019-05-11T23:33:38.283Z,69.77
2019-05-11T23:36:08.420Z,70.76
2019-05-11T23:38:38.900Z,71.93
2019-05-11T23:41:22.626Z,72.75
2019-05-11T23:43:41.517Z,73.10
2019-05-11T23:46:12.160Z,72.23
2019-05-11T23:48:42.822Z,71.30
2019-05-11T23:51:13.129Z,70.13
2019-05-11T23:53:43.803Z,69.71
2019-05-11T23:56:14.196Z,69.05
2019-05-11T23:58:44.555Z,68.89
